sensor_id;sensor_type;location;lat;lon;timestamp;P1;durP1;ratioP1;P2;durP2;ratioP2
20391;SDS011;10355;53.688;10.078;2022-08-27T00:01:37;16.35;;;6.47;;
20391;SDS011;10355;53.688;10.078;2022-08-27T00:04:21;17.05;;;6.32;;
20391;SDS011;10355;53.688;10.078;2022-08-27T00:07:04;12.43;;;5.80;;
20391;SDS011;10355;53.688;10.078;2022-08-27T00:09:48;16.50;;;6.38;;
20391;SDS011;10355;53.688;10.078;2022-08-27T00:12:31;13.85;;;6.00;;
20391;SDS011;10355;53.688;10.078;2022-08-27T00:15:15;13.93;;;5.63;;
20391;SDS011;10355;53.688;10.078;2022-08-27T00:17:58;18.88;;;6.40;;
20391;SDS011;10355;53.688;10.078;2022-08-27T00:20:41;13.75;;;5.82;;
20391;SDS011;10355;53.688;10.078;2022-08-27T00:23:24;15.75;;;6.60;;
20391;SDS011;10355;53.688;10.078;2022-08-27T00:26:08;20.10;;;6.95;;
20391;SDS011;10355;53.688;10.078;2022-08-27T00:28:51;18.73;;;6.65;;
20391;SDS011;10355;53.688;10.078;2022-08-27T00:31:34;19.40;;;7.15;;
20391;SDS011;10355;53.688;10.078;2022-08-27T00:34:18;17.52;;;6.60;;
20391;SDS011;10355;53.688;10.078;2022-08-27T00:37:01;15.10;;;6.68;;
20391;SDS011;10355;53.688;10.078;2022-08-27T00:39:44;15.50;;;6.70;;
20391;SDS011;10355;53.688;10.078;2022-08-27T00:42:28;21.70;;;7.25;;
20391;SDS011;10355;53.688;10.078;2022-08-27T00:45:12;15.75;;;6.65;;
20391;SDS011;10355;53.688;10.078;2022-08-27T00:47:56;15.50;;;6.20;;
20391;SDS011;10355;53.688;10.078;2022-08-27T00:50:41;14.48;;;6.13;;
20391;SDS011;10355;53.688;10.078;2022-08-27T00:53:25;14.13;;;6.65;;
20391;SDS011;10355;53.688;10.078;2022-08-27T00:56:11;15.63;;;6.80;;
20391;SDS011;10355;53.688;10.078;2022-08-27T00:58:57;15.95;;;6.50;;
20391;SDS011;10355;53.688;10.078;2022-08-27T01:01:41;17.38;;;6.78;;
20391;SDS011;10355;53.688;10.078;2022-08-27T01:04:46;16.92;;;6.88;;
20391;SDS011;10355;53.688;10.078;2022-08-27T01:07:30;16.33;;;6.38;;
20391;SDS011;10355;53.688;10.078;2022-08-27T01:10:15;15.88;;;6.38;;
20391;SDS011;10355;53.688;10.078;2022-08-27T01:13:00;18.35;;;6.65;;
20391;SDS011;10355;53.688;10.078;2022-08-27T01:15:45;16.80;;;6.93;;
20391;SDS011;10355;53.688;10.078;2022-08-27T01:18:28;14.73;;;6.50;;
20391;SDS011;10355;53.688;10.078;2022-08-27T01:21:13;14.70;;;6.95;;
20391;SDS011;10355;53.688;10.078;2022-08-27T01:24:01;13.88;;;6.82;;
20391;SDS011;10355;53.688;10.078;2022-08-27T01:26:46;17.45;;;7.03;;
20391;SDS011;10355;53.688;10.078;2022-08-27T01:29:29;15.18;;;6.85;;
20391;SDS011;10355;53.688;10.078;2022-08-27T01:32:14;15.18;;;6.65;;
20391;SDS011;10355;53.688;10.078;2022-08-27T01:34:58;17.50;;;7.28;;
20391;SDS011;10355;53.688;10.078;2022-08-27T01:37:41;16.80;;;7.00;;
20391;SDS011;10355;53.688;10.078;2022-08-27T01:40:28;12.50;;;6.13;;
20391;SDS011;10355;53.688;10.078;2022-08-27T01:43:12;16.70;;;7.15;;
20391;SDS011;10355;53.688;10.078;2022-08-27T01:45:56;16.75;;;7.13;;
20391;SDS011;10355;53.688;10.078;2022-08-27T01:48:40;19.20;;;7.40;;
20391;SDS011;10355;53.688;10.078;2022-08-27T01:51:23;17.27;;;6.57;;
20391;SDS011;10355;53.688;10.078;2022-08-27T01:54:05;17.55;;;6.90;;
20391;SDS011;10355;53.688;10.078;2022-08-27T01:56:48;14.15;;;6.70;;
20391;SDS011;10355;53.688;10.078;2022-08-27T01:59:33;14.75;;;6.32;;
20391;SDS011;10355;53.688;10.078;2022-08-27T02:02:20;14.98;;;6.43;;
20391;SDS011;10355;53.688;10.078;2022-08-27T02:05:03;15.18;;;6.38;;
20391;SDS011;10355;53.688;10.078;2022-08-27T02:07:46;15.57;;;6.53;;
20391;SDS011;10355;53.688;10.078;2022-08-27T02:10:30;17.13;;;6.53;;
20391;SDS011;10355;53.688;10.078;2022-08-27T02:13:13;17.38;;;6.88;;
20391;SDS011;10355;53.688;10.078;2022-08-27T02:15:58;19.73;;;7.10;;
20391;SDS011;10355;53.688;10.078;2022-08-27T02:18:43;20.52;;;6.82;;
20391;SDS011;10355;53.688;10.078;2022-08-27T02:21:32;18.27;;;7.03;;
20391;SDS011;10355;53.688;10.078;2022-08-27T02:24:17;15.50;;;6.72;;
20391;SDS011;10355;53.688;10.078;2022-08-27T02:27:00;18.20;;;7.13;;
20391;SDS011;10355;53.688;10.078;2022-08-27T02:29:43;15.95;;;6.65;;
20391;SDS011;10355;53.688;10.078;2022-08-27T02:32:31;17.33;;;7.38;;
20391;SDS011;10355;53.688;10.078;2022-08-27T02:35:15;14.18;;;6.68;;
20391;SDS011;10355;53.688;10.078;2022-08-27T02:38:01;17.48;;;6.85;;
20391;SDS011;10355;53.688;10.078;2022-08-27T02:40:44;14.35;;;6.88;;
20391;SDS011;10355;53.688;10.078;2022-08-27T02:43:27;15.70;;;6.22;;
20391;SDS011;10355;53.688;10.078;2022-08-27T02:46:11;14.18;;;6.10;;
20391;SDS011;10355;53.688;10.078;2022-08-27T02:48:55;15.32;;;5.88;;
20391;SDS011;10355;53.688;10.078;2022-08-27T02:51:38;16.25;;;6.60;;
20391;SDS011;10355;53.688;10.078;2022-08-27T02:54:22;16.00;;;6.03;;
20391;SDS011;10355;53.688;10.078;2022-08-27T02:57:06;12.77;;;5.88;;
20391;SDS011;10355;53.688;10.078;2022-08-27T02:59:49;19.25;;;6.03;;
20391;SDS011;10355;53.688;10.078;2022-08-27T03:02:34;14.32;;;6.15;;
20391;SDS011;10355;53.688;10.078;2022-08-27T03:05:19;17.13;;;6.30;;
20391;SDS011;10355;53.688;10.078;2022-08-27T03:08:02;18.05;;;6.63;;
20391;SDS011;10355;53.688;10.078;2022-08-27T03:10:45;15.20;;;6.05;;
20391;SDS011;10355;53.688;10.078;2022-08-27T03:13:28;20.77;;;7.22;;
20391;SDS011;10355;53.688;10.078;2022-08-27T03:16:12;14.77;;;6.00;;
20391;SDS011;10355;53.688;10.078;2022-08-27T03:18:55;14.75;;;6.35;;
20391;SDS011;10355;53.688;10.078;2022-08-27T03:21:38;15.55;;;6.22;;
20391;SDS011;10355;53.688;10.078;2022-08-27T03:24:22;14.68;;;6.15;;
20391;SDS011;10355;53.688;10.078;2022-08-27T03:27:05;12.38;;;5.72;;
20391;SDS011;10355;53.688;10.078;2022-08-27T03:29:48;17.45;;;6.50;;
20391;SDS011;10355;53.688;10.078;2022-08-27T03:32:31;14.68;;;6.05;;
20391;SDS011;10355;53.688;10.078;2022-08-27T03:35:14;14.05;;;6.25;;
20391;SDS011;10355;53.688;10.078;2022-08-27T03:37:58;13.43;;;6.57;;
20391;SDS011;10355;53.688;10.078;2022-08-27T03:40:41;13.15;;;6.50;;
20391;SDS011;10355;53.688;10.078;2022-08-27T03:43:24;15.45;;;5.50;;
20391;SDS011;10355;53.688;10.078;2022-08-27T03:46:07;15.10;;;6.15;;
20391;SDS011;10355;53.688;10.078;2022-08-27T03:48:50;14.35;;;6.30;;
20391;SDS011;10355;53.688;10.078;2022-08-27T03:51:37;13.57;;;5.57;;
20391;SDS011;10355;53.688;10.078;2022-08-27T03:54:22;13.57;;;5.50;;
20391;SDS011;10355;53.688;10.078;2022-08-27T03:57:05;12.35;;;5.45;;
20391;SDS011;10355;53.688;10.078;2022-08-27T03:59:48;16.77;;;5.88;;
20391;SDS011;10355;53.688;10.078;2022-08-27T04:02:34;13.40;;;5.93;;
20391;SDS011;10355;53.688;10.078;2022-08-27T04:05:18;13.43;;;5.78;;
20391;SDS011;10355;53.688;10.078;2022-08-27T04:08:01;13.60;;;5.43;;
20391;SDS011;10355;53.688;10.078;2022-08-27T04:10:46;11.50;;;5.38;;
20391;SDS011;10355;53.688;10.078;2022-08-27T04:13:29;14.45;;;5.97;;
20391;SDS011;10355;53.688;10.078;2022-08-27T04:16:12;14.02;;;5.75;;
20391;SDS011;10355;53.688;10.078;2022-08-27T04:18:55;14.00;;;5.45;;
20391;SDS011;10355;53.688;10.078;2022-08-27T04:21:38;13.57;;;5.10;;
20391;SDS011;10355;53.688;10.078;2022-08-27T04:24:22;12.52;;;5.30;;
20391;SDS011;10355;53.688;10.078;2022-08-27T04:27:06;11.88;;;5.75;;
20391;SDS011;10355;53.688;10.078;2022-08-27T04:29:52;12.27;;;5.47;;
20391;SDS011;10355;53.688;10.078;2022-08-27T04:32:36;13.73;;;5.80;;
20391;SDS011;10355;53.688;10.078;2022-08-27T04:35:19;12.30;;;5.80;;
20391;SDS011;10355;53.688;10.078;2022-08-27T04:38:02;13.85;;;6.07;;
20391;SDS011;10355;53.688;10.078;2022-08-27T04:40:45;13.20;;;5.97;;
20391;SDS011;10355;53.688;10.078;2022-08-27T04:43:50;17.05;;;6.03;;
20391;SDS011;10355;53.688;10.078;2022-08-27T04:46:35;10.90;;;5.63;;
20391;SDS011;10355;53.688;10.078;2022-08-27T04:49:19;14.90;;;5.80;;
20391;SDS011;10355;53.688;10.078;2022-08-27T04:52:02;14.90;;;6.10;;
20391;SDS011;10355;53.688;10.078;2022-08-27T04:54:45;12.27;;;5.82;;
20391;SDS011;10355;53.688;10.078;2022-08-27T04:57:28;11.30;;;5.57;;
20391;SDS011;10355;53.688;10.078;2022-08-27T05:00:14;14.38;;;6.25;;
20391;SDS011;10355;53.688;10.078;2022-08-27T05:02:57;14.52;;;6.00;;
20391;SDS011;10355;53.688;10.078;2022-08-27T05:05:40;14.50;;;6.25;;
20391;SDS011;10355;53.688;10.078;2022-08-27T05:08:23;13.45;;;6.60;;
20391;SDS011;10355;53.688;10.078;2022-08-27T05:11:10;18.48;;;6.70;;
20391;SDS011;10355;53.688;10.078;2022-08-27T05:13:54;14.95;;;6.10;;
20391;SDS011;10355;53.688;10.078;2022-08-27T05:16:38;12.90;;;7.07;;
20391;SDS011;10355;53.688;10.078;2022-08-27T05:19:21;16.52;;;7.45;;
20391;SDS011;10355;53.688;10.078;2022-08-27T05:22:04;13.63;;;6.75;;
20391;SDS011;10355;53.688;10.078;2022-08-27T05:24:48;11.05;;;6.63;;
20391;SDS011;10355;53.688;10.078;2022-08-27T05:27:31;13.18;;;6.32;;
20391;SDS011;10355;53.688;10.078;2022-08-27T05:30:13;14.43;;;7.20;;
20391;SDS011;10355;53.688;10.078;2022-08-27T05:32:58;13.07;;;7.03;;
20391;SDS011;10355;53.688;10.078;2022-08-27T05:35:42;10.48;;;6.32;;
20391;SDS011;10355;53.688;10.078;2022-08-27T05:38:27;12.32;;;5.97;;
20391;SDS011;10355;53.688;10.078;2022-08-27T05:41:12;12.48;;;6.47;;
20391;SDS011;10355;53.688;10.078;2022-08-27T05:43:56;14.20;;;6.70;;
20391;SDS011;10355;53.688;10.078;2022-08-27T05:46:41;13.98;;;6.47;;
20391;SDS011;10355;53.688;10.078;2022-08-27T05:49:25;14.45;;;6.68;;
20391;SDS011;10355;53.688;10.078;2022-08-27T05:52:09;14.35;;;7.00;;
20391;SDS011;10355;53.688;10.078;2022-08-27T05:54:52;12.85;;;6.15;;
20391;SDS011;10355;53.688;10.078;2022-08-27T05:57:35;12.98;;;6.40;;
20391;SDS011;10355;53.688;10.078;2022-08-27T06:00:18;14.35;;;6.65;;
20391;SDS011;10355;53.688;10.078;2022-08-27T06:03:18;14.98;;;6.45;;
20391;SDS011;10355;53.688;10.078;2022-08-27T06:06:03;14.07;;;6.07;;
20391;SDS011;10355;53.688;10.078;2022-08-27T06:08:49;11.48;;;6.03;;
20391;SDS011;10355;53.688;10.078;2022-08-27T06:11:32;12.38;;;6.35;;
20391;SDS011;10355;53.688;10.078;2022-08-27T06:14:15;11.90;;;6.05;;
20391;SDS011;10355;53.688;10.078;2022-08-27T06:16:59;12.48;;;6.35;;
20391;SDS011;10355;53.688;10.078;2022-08-27T06:19:42;14.73;;;6.82;;
20391;SDS011;10355;53.688;10.078;2022-08-27T06:22:27;15.18;;;6.38;;
20391;SDS011;10355;53.688;10.078;2022-08-27T06:25:10;12.63;;;6.07;;
20391;SDS011;10355;53.688;10.078;2022-08-27T06:27:53;12.63;;;5.72;;
20391;SDS011;10355;53.688;10.078;2022-08-27T06:30:36;12.38;;;5.85;;
20391;SDS011;10355;53.688;10.078;2022-08-27T06:33:19;12.98;;;5.82;;
20391;SDS011;10355;53.688;10.078;2022-08-27T06:36:03;14.88;;;5.55;;
20391;SDS011;10355;53.688;10.078;2022-08-27T06:38:51;12.63;;;5.43;;
20391;SDS011;10355;53.688;10.078;2022-08-27T06:41:34;12.57;;;5.75;;
20391;SDS011;10355;53.688;10.078;2022-08-27T06:44:24;12.38;;;5.15;;
20391;SDS011;10355;53.688;10.078;2022-08-27T06:47:07;13.10;;;5.43;;
20391;SDS011;10355;53.688;10.078;2022-08-27T06:49:50;10.50;;;5.15;;
20391;SDS011;10355;53.688;10.078;2022-08-27T06:52:33;11.98;;;4.93;;
20391;SDS011;10355;53.688;10.078;2022-08-27T06:55:18;14.70;;;4.75;;
20391;SDS011;10355;53.688;10.078;2022-08-27T06:58:01;12.82;;;5.32;;
20391;SDS011;10355;53.688;10.078;2022-08-27T07:00:45;15.35;;;5.55;;
20391;SDS011;10355;53.688;10.078;2022-08-27T07:03:29;15.73;;;5.70;;
20391;SDS011;10355;53.688;10.078;2022-08-27T07:06:14;14.55;;;5.38;;
20391;SDS011;10355;53.688;10.078;2022-08-27T07:08:58;12.80;;;5.15;;
20391;SDS011;10355;53.688;10.078;2022-08-27T07:11:43;8.95;;;4.80;;
20391;SDS011;10355;53.688;10.078;2022-08-27T07:14:26;9.82;;;4.68;;
20391;SDS011;10355;53.688;10.078;2022-08-27T07:17:16;12.43;;;4.60;;
20391;SDS011;10355;53.688;10.078;2022-08-27T07:19:59;12.27;;;4.70;;
20391;SDS011;10355;53.688;10.078;2022-08-27T07:22:43;12.63;;;4.10;;
20391;SDS011;10355;53.688;10.078;2022-08-27T07:25:27;11.32;;;4.38;;
20391;SDS011;10355;53.688;10.078;2022-08-27T07:28:15;11.20;;;4.70;;
20391;SDS011;10355;53.688;10.078;2022-08-27T07:31:16;11.93;;;4.55;;
20391;SDS011;10355;53.688;10.078;2022-08-27T07:34:00;13.75;;;3.65;;
20391;SDS011;10355;53.688;10.078;2022-08-27T07:36:43;12.88;;;3.95;;
20391;SDS011;10355;53.688;10.078;2022-08-27T07:39:29;10.27;;;3.40;;
20391;SDS011;10355;53.688;10.078;2022-08-27T07:42:12;8.73;;;3.38;;
20391;SDS011;10355;53.688;10.078;2022-08-27T07:45:14;8.88;;;3.47;;
20391;SDS011;10355;53.688;10.078;2022-08-27T07:47:56;8.68;;;3.17;;
20391;SDS011;10355;53.688;10.078;2022-08-27T07:50:39;10.80;;;2.97;;
20391;SDS011;10355;53.688;10.078;2022-08-27T07:53:23;9.40;;;3.35;;
20391;SDS011;10355;53.688;10.078;2022-08-27T07:56:09;9.00;;;3.00;;
20391;SDS011;10355;53.688;10.078;2022-08-27T07:58:52;10.88;;;3.00;;
20391;SDS011;10355;53.688;10.078;2022-08-27T08:01:36;10.70;;;3.25;;
20391;SDS011;10355;53.688;10.078;2022-08-27T08:04:22;10.90;;;3.05;;
20391;SDS011;10355;53.688;10.078;2022-08-27T08:07:07;8.35;;;2.85;;
20391;SDS011;10355;53.688;10.078;2022-08-27T08:09:50;8.13;;;2.85;;
20391;SDS011;10355;53.688;10.078;2022-08-27T08:12:33;6.03;;;2.75;;
20391;SDS011;10355;53.688;10.078;2022-08-27T08:15:16;7.22;;;2.90;;
20391;SDS011;10355;53.688;10.078;2022-08-27T08:18:01;10.25;;;3.20;;
20391;SDS011;10355;53.688;10.078;2022-08-27T08:20:45;7.40;;;2.92;;
20391;SDS011;10355;53.688;10.078;2022-08-27T08:23:38;9.50;;;2.70;;
20391;SDS011;10355;53.688;10.078;2022-08-27T08:26:21;9.57;;;2.95;;
20391;SDS011;10355;53.688;10.078;2022-08-27T08:29:04;7.75;;;3.10;;
20391;SDS011;10355;53.688;10.078;2022-08-27T08:31:47;9.65;;;2.78;;
20391;SDS011;10355;53.688;10.078;2022-08-27T08:34:32;10.73;;;3.40;;
20391;SDS011;10355;53.688;10.078;2022-08-27T08:37:16;7.75;;;3.28;;
20391;SDS011;10355;53.688;10.078;2022-08-27T08:39:59;5.78;;;2.33;;
20391;SDS011;10355;53.688;10.078;2022-08-27T08:42:43;8.93;;;2.88;;
20391;SDS011;10355;53.688;10.078;2022-08-27T08:45:32;11.57;;;3.03;;
20391;SDS011;10355;53.688;10.078;2022-08-27T08:48:16;9.20;;;2.80;;
20391;SDS011;10355;53.688;10.078;2022-08-27T08:51:03;9.77;;;3.28;;
20391;SDS011;10355;53.688;10.078;2022-08-27T08:53:50;8.63;;;2.90;;
20391;SDS011;10355;53.688;10.078;2022-08-27T08:56:36;10.10;;;3.17;;
20391;SDS011;10355;53.688;10.078;2022-08-27T08:59:23;8.25;;;3.28;;
20391;SDS011;10355;53.688;10.078;2022-08-27T09:02:09;10.32;;;3.17;;
20391;SDS011;10355;53.688;10.078;2022-08-27T09:04:54;9.38;;;3.03;;
20391;SDS011;10355;53.688;10.078;2022-08-27T09:07:41;8.90;;;3.08;;
20391;SDS011;10355;53.688;10.078;2022-08-27T09:10:30;9.50;;;2.55;;
20391;SDS011;10355;53.688;10.078;2022-08-27T09:13:18;11.20;;;3.17;;
20391;SDS011;10355;53.688;10.078;2022-08-27T09:16:02;6.78;;;2.83;;
20391;SDS011;10355;53.688;10.078;2022-08-27T09:18:47;8.30;;;2.58;;
20391;SDS011;10355;53.688;10.078;2022-08-27T09:21:35;7.72;;;3.08;;
20391;SDS011;10355;53.688;10.078;2022-08-27T09:24:25;9.73;;;3.10;;
20391;SDS011;10355;53.688;10.078;2022-08-27T09:27:11;8.48;;;3.13;;
20391;SDS011;10355;53.688;10.078;2022-08-27T09:29:56;9.15;;;3.10;;
20391;SDS011;10355;53.688;10.078;2022-08-27T09:32:39;8.98;;;3.15;;
20391;SDS011;10355;53.688;10.078;2022-08-27T09:35:22;7.53;;;2.42;;
20391;SDS011;10355;53.688;10.078;2022-08-27T09:38:06;8.90;;;2.63;;
20391;SDS011;10355;53.688;10.078;2022-08-27T09:40:51;8.48;;;2.83;;
20391;SDS011;10355;53.688;10.078;2022-08-27T09:43:35;11.45;;;2.83;;
20391;SDS011;10355;53.688;10.078;2022-08-27T09:46:24;7.22;;;2.85;;
20391;SDS011;10355;53.688;10.078;2022-08-27T09:49:08;5.93;;;2.40;;
20391;SDS011;10355;53.688;10.078;2022-08-27T09:51:52;6.28;;;2.40;;
20391;SDS011;10355;53.688;10.078;2022-08-27T09:54:41;8.32;;;2.80;;
20391;SDS011;10355;53.688;10.078;2022-08-27T09:57:29;8.35;;;2.83;;
20391;SDS011;10355;53.688;10.078;2022-08-27T10:00:15;8.07;;;2.88;;
20391;SDS011;10355;53.688;10.078;2022-08-27T10:02:59;6.22;;;2.75;;
20391;SDS011;10355;53.688;10.078;2022-08-27T10:05:46;9.10;;;3.20;;
20391;SDS011;10355;53.688;10.078;2022-08-27T10:08:36;9.30;;;3.35;;
20391;SDS011;10355;53.688;10.078;2022-08-27T10:11:21;8.98;;;3.40;;
20391;SDS011;10355;53.688;10.078;2022-08-27T10:14:07;8.20;;;2.78;;
20391;SDS011;10355;53.688;10.078;2022-08-27T10:16:57;8.40;;;2.85;;
20391;SDS011;10355;53.688;10.078;2022-08-27T10:19:45;7.00;;;2.70;;
20391;SDS011;10355;53.688;10.078;2022-08-27T10:22:34;9.52;;;3.20;;
20391;SDS011;10355;53.688;10.078;2022-08-27T10:25:22;8.85;;;2.38;;
20391;SDS011;10355;53.688;10.078;2022-08-27T10:28:09;7.97;;;2.78;;
20391;SDS011;10355;53.688;10.078;2022-08-27T10:33:59;7.05;;;2.70;;
20391;SDS011;10355;53.688;10.078;2022-08-27T10:36:50;7.57;;;2.53;;
20391;SDS011;10355;53.688;10.078;2022-08-27T10:39:40;9.10;;;3.00;;
20391;SDS011;10355;53.688;10.078;2022-08-27T10:42:27;6.28;;;2.35;;
20391;SDS011;10355;53.688;10.078;2022-08-27T10:45:14;8.25;;;2.75;;
20391;SDS011;10355;53.688;10.078;2022-08-27T10:48:14;7.45;;;3.08;;
20391;SDS011;10355;53.688;10.078;2022-08-27T10:51:03;8.52;;;2.95;;
20391;SDS011;10355;53.688;10.078;2022-08-27T10:53:51;9.35;;;3.10;;
20391;SDS011;10355;53.688;10.078;2022-08-27T10:56:37;6.93;;;2.85;;
20391;SDS011;10355;53.688;10.078;2022-08-27T10:59:22;7.47;;;2.88;;
20391;SDS011;10355;53.688;10.078;2022-08-27T11:02:09;8.25;;;3.13;;
20391;SDS011;10355;53.688;10.078;2022-08-27T11:04:55;7.95;;;2.80;;
20391;SDS011;10355;53.688;10.078;2022-08-27T11:07:42;10.18;;;2.78;;
20391;SDS011;10355;53.688;10.078;2022-08-27T11:10:28;5.47;;;2.35;;
20391;SDS011;10355;53.688;10.078;2022-08-27T11:13:12;6.28;;;2.83;;
20391;SDS011;10355;53.688;10.078;2022-08-27T11:15:56;9.32;;;3.40;;
20391;SDS011;10355;53.688;10.078;2022-08-27T11:18:41;11.07;;;2.78;;
20391;SDS011;10355;53.688;10.078;2022-08-27T11:21:28;9.25;;;3.42;;
20391;SDS011;10355;53.688;10.078;2022-08-27T11:24:18;8.73;;;3.28;;
20391;SDS011;10355;53.688;10.078;2022-08-27T11:27:05;8.82;;;3.13;;
20391;SDS011;10355;53.688;10.078;2022-08-27T11:29:49;9.23;;;3.22;;
20391;SDS011;10355;53.688;10.078;2022-08-27T11:32:44;7.78;;;3.08;;
20391;SDS011;10355;53.688;10.078;2022-08-27T11:35:31;11.48;;;3.45;;
20391;SDS011;10355;53.688;10.078;2022-08-27T11:38:19;8.02;;;2.58;;
20391;SDS011;10355;53.688;10.078;2022-08-27T11:41:13;6.88;;;2.40;;
20391;SDS011;10355;53.688;10.078;2022-08-27T11:43:57;8.50;;;2.33;;
20391;SDS011;10355;53.688;10.078;2022-08-27T11:46:42;4.63;;;2.20;;
20391;SDS011;10355;53.688;10.078;2022-08-27T11:49:27;6.45;;;2.00;;
20391;SDS011;10355;53.688;10.078;2022-08-27T11:52:10;5.57;;;1.92;;
20391;SDS011;10355;53.688;10.078;2022-08-27T11:54:55;7.93;;;2.08;;
20391;SDS011;10355;53.688;10.078;2022-08-27T11:57:40;5.43;;;1.80;;
20391;SDS011;10355;53.688;10.078;2022-08-27T12:00:27;7.72;;;2.22;;
20391;SDS011;10355;53.688;10.078;2022-08-27T12:03:25;3.70;;;1.30;;
20391;SDS011;10355;53.688;10.078;2022-08-27T12:06:15;4.93;;;1.60;;
20391;SDS011;10355;53.688;10.078;2022-08-27T12:09:04;6.28;;;1.60;;
20391;SDS011;10355;53.688;10.078;2022-08-27T12:11:50;6.13;;;1.58;;
20391;SDS011;10355;53.688;10.078;2022-08-27T12:14:41;5.28;;;1.42;;
20391;SDS011;10355;53.688;10.078;2022-08-27T12:17:25;4.53;;;1.30;;
20391;SDS011;10355;53.688;10.078;2022-08-27T12:20:17;3.38;;;1.10;;
20391;SDS011;10355;53.688;10.078;2022-08-27T12:23:06;6.40;;;1.00;;
20391;SDS011;10355;53.688;10.078;2022-08-27T12:26:26;4.05;;;1.10;;
20391;SDS011;10355;53.688;10.078;2022-08-27T12:29:19;5.13;;;1.30;;
20391;SDS011;10355;53.688;10.078;2022-08-27T12:32:17;2.95;;;0.93;;
20391;SDS011;10355;53.688;10.078;2022-08-27T12:35:03;4.03;;;1.13;;
20391;SDS011;10355;53.688;10.078;2022-08-27T12:37:48;4.30;;;1.13;;
20391;SDS011;10355;53.688;10.078;2022-08-27T12:40:37;3.92;;;1.05;;
20391;SDS011;10355;53.688;10.078;2022-08-27T12:43:21;3.65;;;1.10;;
20391;SDS011;10355;53.688;10.078;2022-08-27T12:46:06;3.67;;;1.08;;
20391;SDS011;10355;53.688;10.078;2022-08-27T12:48:53;3.42;;;0.90;;
20391;SDS011;10355;53.688;10.078;2022-08-27T12:51:37;3.60;;;1.20;;
20391;SDS011;10355;53.688;10.078;2022-08-27T12:54:24;3.47;;;1.10;;
20391;SDS011;10355;53.688;10.078;2022-08-27T12:57:12;3.35;;;1.15;;
20391;SDS011;10355;53.688;10.078;2022-08-27T13:00:07;1.65;;;0.70;;
20391;SDS011;10355;53.688;10.078;2022-08-27T13:05:52;2.33;;;0.73;;
20391;SDS011;10355;53.688;10.078;2022-08-27T13:08:38;2.20;;;1.20;;
20391;SDS011;10355;53.688;10.078;2022-08-27T13:11:21;6.00;;;1.35;;
20391;SDS011;10355;53.688;10.078;2022-08-27T13:14:06;5.53;;;1.05;;
20391;SDS011;10355;53.688;10.078;2022-08-27T13:16:49;7.20;;;1.48;;
20391;SDS011;10355;53.688;10.078;2022-08-27T13:19:34;3.55;;;1.00;;
20391;SDS011;10355;53.688;10.078;2022-08-27T13:22:22;3.80;;;0.93;;
20391;SDS011;10355;53.688;10.078;2022-08-27T13:25:06;4.05;;;0.98;;
20391;SDS011;10355;53.688;10.078;2022-08-27T13:28:02;2.72;;;0.90;;
20391;SDS011;10355;53.688;10.078;2022-08-27T13:30:49;3.33;;;0.75;;
20391;SDS011;10355;53.688;10.078;2022-08-27T13:33:33;2.85;;;0.80;;
20391;SDS011;10355;53.688;10.078;2022-08-27T13:36:24;2.25;;;0.77;;
20391;SDS011;10355;53.688;10.078;2022-08-27T13:39:12;2.42;;;0.80;;
20391;SDS011;10355;53.688;10.078;2022-08-27T13:41:57;2.75;;;0.90;;
20391;SDS011;10355;53.688;10.078;2022-08-27T13:44:40;3.22;;;0.80;;
20391;SDS011;10355;53.688;10.078;2022-08-27T13:47:28;1.08;;;0.55;;
20391;SDS011;10355;53.688;10.078;2022-08-27T13:50:13;2.28;;;0.60;;
20391;SDS011;10355;53.688;10.078;2022-08-27T13:53:02;1.67;;;0.70;;
20391;SDS011;10355;53.688;10.078;2022-08-27T13:56:07;1.88;;;0.70;;
20391;SDS011;10355;53.688;10.078;2022-08-27T13:58:50;2.05;;;0.70;;
20391;SDS011;10355;53.688;10.078;2022-08-27T14:01:33;1.63;;;0.68;;
20391;SDS011;10355;53.688;10.078;2022-08-27T14:04:19;3.17;;;0.70;;
20391;SDS011;10355;53.688;10.078;2022-08-27T14:07:07;3.13;;;0.70;;
20391;SDS011;10355;53.688;10.078;2022-08-27T14:09:51;2.40;;;0.90;;
20391;SDS011;10355;53.688;10.078;2022-08-27T14:12:37;1.80;;;0.60;;
20391;SDS011;10355;53.688;10.078;2022-08-27T14:15:21;2.55;;;0.70;;
20391;SDS011;10355;53.688;10.078;2022-08-27T14:18:06;2.95;;;1.05;;
20391;SDS011;10355;53.688;10.078;2022-08-27T14:20:49;2.50;;;0.65;;
20391;SDS011;10355;53.688;10.078;2022-08-27T14:23:32;3.90;;;1.00;;
20391;SDS011;10355;53.688;10.078;2022-08-27T14:26:15;5.40;;;0.75;;
20391;SDS011;10355;53.688;10.078;2022-08-27T14:29:00;2.67;;;0.70;;
20391;SDS011;10355;53.688;10.078;2022-08-27T14:31:51;1.10;;;0.50;;
20391;SDS011;10355;53.688;10.078;2022-08-27T14:34:34;2.42;;;0.63;;
20391;SDS011;10355;53.688;10.078;2022-08-27T14:37:17;2.22;;;0.68;;
20391;SDS011;10355;53.688;10.078;2022-08-27T14:40:01;1.13;;;0.43;;
20391;SDS011;10355;53.688;10.078;2022-08-27T14:42:46;2.25;;;0.50;;
20391;SDS011;10355;53.688;10.078;2022-08-27T14:45:30;4.00;;;0.40;;
20391;SDS011;10355;53.688;10.078;2022-08-27T14:48:14;3.88;;;0.68;;
20391;SDS011;10355;53.688;10.078;2022-08-27T14:51:01;2.97;;;0.63;;
20391;SDS011;10355;53.688;10.078;2022-08-27T14:53:48;2.92;;;0.65;;
20391;SDS011;10355;53.688;10.078;2022-08-27T14:56:31;6.75;;;0.88;;
20391;SDS011;10355;53.688;10.078;2022-08-27T14:59:14;3.38;;;0.75;;
20391;SDS011;10355;53.688;10.078;2022-08-27T15:01:59;3.92;;;0.70;;
20391;SDS011;10355;53.688;10.078;2022-08-27T15:04:42;2.90;;;0.60;;
20391;SDS011;10355;53.688;10.078;2022-08-27T15:07:28;3.90;;;0.55;;
20391;SDS011;10355;53.688;10.078;2022-08-27T15:10:11;1.63;;;0.60;;
20391;SDS011;10355;53.688;10.078;2022-08-27T15:12:54;3.22;;;0.65;;
20391;SDS011;10355;53.688;10.078;2022-08-27T15:15:37;2.63;;;0.60;;
20391;SDS011;10355;53.688;10.078;2022-08-27T15:18:21;3.33;;;0.52;;
20391;SDS011;10355;53.688;10.078;2022-08-27T15:21:04;6.90;;;0.88;;
20391;SDS011;10355;53.688;10.078;2022-08-27T15:23:52;2.40;;;0.50;;
20391;SDS011;10355;53.688;10.078;2022-08-27T15:26:36;2.28;;;0.50;;
20391;SDS011;10355;53.688;10.078;2022-08-27T15:29:19;1.52;;;0.57;;
20391;SDS011;10355;53.688;10.078;2022-08-27T15:32:02;1.40;;;0.40;;
20391;SDS011;10355;53.688;10.078;2022-08-27T15:34:47;5.70;;;0.65;;
20391;SDS011;10355;53.688;10.078;2022-08-27T15:37:31;4.20;;;0.77;;
20391;SDS011;10355;53.688;10.078;2022-08-27T15:40:16;2.03;;;0.43;;
20391;SDS011;10355;53.688;10.078;2022-08-27T15:43:00;2.10;;;0.60;;
20391;SDS011;10355;53.688;10.078;2022-08-27T15:45:43;3.00;;;0.60;;
20391;SDS011;10355;53.688;10.078;2022-08-27T15:48:26;2.33;;;0.63;;
20391;SDS011;10355;53.688;10.078;2022-08-27T15:51:11;2.80;;;0.60;;
20391;SDS011;10355;53.688;10.078;2022-08-27T15:53:54;2.05;;;0.50;;
20391;SDS011;10355;53.688;10.078;2022-08-27T15:56:37;5.60;;;0.82;;
20391;SDS011;10355;53.688;10.078;2022-08-27T15:59:20;5.28;;;0.68;;
20391;SDS011;10355;53.688;10.078;2022-08-27T16:02:03;2.45;;;0.90;;
20391;SDS011;10355;53.688;10.078;2022-08-27T16:04:46;3.60;;;0.73;;
20391;SDS011;10355;53.688;10.078;2022-08-27T16:07:31;5.95;;;1.00;;
20391;SDS011;10355;53.688;10.078;2022-08-27T16:10:14;5.13;;;0.82;;
20391;SDS011;10355;53.688;10.078;2022-08-27T16:12:57;3.78;;;0.93;;
20391;SDS011;10355;53.688;10.078;2022-08-27T16:15:40;4.72;;;0.98;;
20391;SDS011;10355;53.688;10.078;2022-08-27T16:18:24;4.38;;;1.05;;
20391;SDS011;10355;53.688;10.078;2022-08-27T16:21:08;5.60;;;1.15;;